Time;durP1;ratioP1;P1;durP2;ratioP2;P2;SDS_P1;SDS_P2;PMS_P1;PMS_P2;Temp;Humidity;BMP_temperature;BMP_pressure;BME280_temperature;BME280_humidity;BME280_pressure;Samples;Min_cycle;Max_cycle;Signal;HPM_P1;HPM_P2
2023/06/19 00:01:11;;;;;;;;;;;;;;;21.95;50.09;92636.72;2051277;70;20413;-78
2023/06/19 00:03:41;;;;;;;;;;;;;;;21.92;50.08;92640.94;2054892;69;20058;-75
2023/06/19 00:06:07;;;;;;;;;;;;;;;21.84;50.81;92635.78;2055009;70;20116;-76
2023/06/19 00:08:36;;;;;;;;;;;;;;;21.74;50.46;92638.47;2055279;70;20443;-75
2023/06/19 00:11:05;;;;;;;;;;;;;;;21.70;50.08;92641.25;2051633;70;20073;-77
2023/06/19 00:13:30;;;;;;;;;;;;;;;21.71;50.43;92636.97;2058078;69;20062;-73
2023/06/19 00:16:00;;;;;;;;;;;;;;;21.68;51.13;92650.56;2054997;69;20390;-76
2023/06/19 00:18:26;;;;;;;;;;;;;;;21.79;50.42;92651.47;2058415;69;20046;-75
2023/06/19 00:20:54;;;;;;;;;;;;;;;21.60;51.52;92652.53;2058496;69;20046;-76
2023/06/19 00:23:19;;;;;;;;;;;;;;;21.46;52.09;92653.00;2057398;69;20622;-76
2023/06/19 00:25:45;;;;;;;;;;;;;;;21.62;50.17;92650.41;2054415;69;20522;-76
2023/06/19 00:28:13;;;;;;;;;;;;;;;21.64;50.08;92646.88;2051586;70;20121;-76
2023/06/19 00:30:39;;;;;;;;;;;;;;;21.45;49.84;92666.59;2055050;69;20455;-76
2023/06/19 00:33:05;;;;;;;;;;;;;;;21.39;50.99;92666.44;2051246;70;20055;-75
2023/06/19 00:35:30;;;;;;;;;;;;;;;21.34;51.12;92672.78;2055090;70;20521;-74
2023/06/19 00:37:56;;;;;;;;;;;;;;;21.10;51.97;92670.13;2051584;70;20498;-75
2023/06/19 00:40:31;;;;;;;;;;;;;;;21.17;51.43;92672.44;2057409;69;20046;-75
2023/06/19 00:42:56;;;;;;;;;;;;;;;21.19;51.29;92675.31;2053166;69;20058;-75
2023/06/19 00:45:24;;;;;;;;;;;;;;;21.21;50.34;92666.78;2052766;69;20152;-75
2023/06/19 00:47:53;;;;;;;;;;;;;;;21.06;51.04;92665.03;2055609;69;20105;-75
2023/06/19 00:50:19;;;;;;;;;;;;;;;21.06;50.88;92657.16;2051759;70;20058;-76
2023/06/19 00:52:44;;;;;;;;;;;;;;;20.85;51.84;92658.16;2054483;70;20058;-76
2023/06/19 00:55:10;;;;;;;;;;;;;;;20.94;51.07;92651.19;2054806;69;20084;-76
2023/06/19 00:57:36;;;;;;;;;;;;;;;20.80;51.69;92654.47;2051630;70;20057;-76
2023/06/19 01:00:04;;;;;;;;;;;;;;;20.78;51.73;92656.56;2055289;70;20434;-76
2023/06/19 01:02:30;;;;;;;;;;;;;;;20.74;50.99;92653.59;2051462;70;20209;-76
2023/06/19 01:04:56;;;;;;;;;;;;;;;20.75;50.68;92658.63;2055303;69;20503;-76
2023/06/19 01:07:40;;;;;;;;;;;;;;;20.69;51.12;92660.63;2051692;70;20787;-76
2023/06/19 01:10:07;;;;;;;;;;;;;;;20.54;52.37;92657.47;2051273;70;20143;-76
2023/06/19 01:12:44;;;;;;;;;;;;;;;20.24;52.79;92660.28;2052427;70;20102;-76
2023/06/19 01:15:10;;;;;;;;;;;;;;;20.43;52.21;92663.56;2055099;69;20054;-76
2023/06/19 01:17:36;;;;;;;;;;;;;;;20.44;52.06;92662.19;2055065;70;20063;-76
2023/06/19 01:20:09;;;;;;;;;;;;;;;20.18;52.58;92670.84;2051354;70;20042;-75
2023/06/19 01:22:34;;;;;;;;;;;;;;;20.48;51.27;92677.34;2055070;70;20062;-75
2023/06/19 01:25:00;;;;;;;;;;;;;;;20.22;52.15;92683.13;2055086;70;20399;-75
2023/06/19 01:27:29;;;;;;;;;;;;;;;20.27;52.35;92684.66;2051416;70;20090;-75
2023/06/19 01:29:55;;;;;;;;;;;;;;;20.24;52.18;92682.44;2054827;70;20055;-75
2023/06/19 01:32:31;;;;;;;;;;;;;;;20.33;52.41;92677.63;2051431;70;20061;-75
2023/06/19 01:34:57;;;;;;;;;;;;;;;20.35;51.36;92669.84;2050477;70;20490;-75
2023/06/19 01:37:27;;;;;;;;;;;;;;;20.12;52.56;92674.28;2050597;70;20167;-75
2023/06/19 01:39:54;;;;;;;;;;;;;;;20.15;52.88;92670.06;2050691;70;20144;-76
2023/06/19 01:42:19;;;;;;;;;;;;;;;20.02;54.19;92677.63;2050764;70;20053;-75
2023/06/19 01:44:45;;;;;;;;;;;;;;;20.05;54.12;92681.97;2051475;70;20490;-75
2023/06/19 01:47:11;;;;;;;;;;;;;;;20.11;53.07;92677.81;2051457;70;20483;-76
2023/06/19 01:49:37;;;;;;;;;;;;;;;20.01;53.36;92681.88;2055202;70;20479;-76
2023/06/19 01:52:03;;;;;;;;;;;;;;;20.19;52.21;92678.75;2055100;69;20136;-76
2023/06/19 01:54:28;;;;;;;;;;;;;;;20.18;52.01;92674.44;2054764;70;20069;-75
2023/06/19 01:56:54;;;;;;;;;;;;;;;20.17;52.40;92678.69;2051484;70;20058;-75
2023/06/19 01:59:21;;;;;;;;;;;;;;;20.05;53.27;92679.13;2051582;70;20055;-75
2023/06/19 02:01:46;;;;;;;;;;;;;;;19.52;54.46;92686.28;2051350;70;20051;-76
2023/06/19 02:04:12;;;;;;;;;;;;;;;19.80;53.79;92688.47;2054766;69;20145;-75
2023/06/19 02:06:38;;;;;;;;;;;;;;;19.97;53.29;92678.91;2055176;70;20046;-75
2023/06/19 02:09:05;;;;;;;;;;;;;;;19.94;53.05;92688.84;2054850;70;20058;-75
2023/06/19 02:11:31;;;;;;;;;;;;;;;19.91;53.20;92689.44;2048566;70;20066;-74
2023/06/19 02:13:56;;;;;;;;;;;;;;;19.95;53.65;92690.28;2054965;70;20110;-75
2023/06/19 02:16:21;;;;;;;;;;;;;;;19.97;53.95;92681.75;2051483;70;20097;-74
2023/06/19 02:18:48;;;;;;;;;;;;;;;19.81;54.83;92692.78;2051317;70;20473;-75
2023/06/19 02:21:13;;;;;;;;;;;;;;;19.99;54.02;92698.97;2054617;70;20058;-74
2023/06/19 02:23:39;;;;;;;;;;;;;;;19.90;53.65;92691.59;2051453;70;20501;-75
2023/06/19 02:26:06;;;;;;;;;;;;;;;19.95;53.39;92695.28;2052106;70;20146;-75
2023/06/19 02:28:31;;;;;;;;;;;;;;;20.15;51.81;92704.34;2055466;69;20150;-74
2023/06/19 02:30:57;;;;;;;;;;;;;;;19.81;52.85;92712.78;2055116;70;20042;-74
2023/06/19 02:33:22;;;;;;;;;;;;;;;20.00;52.75;92711.84;2051893;70;20437;-75
2023/06/19 02:35:48;;;;;;;;;;;;;;;19.98;53.51;92708.22;2055531;69;20161;-74
2023/06/19 02:38:14;;;;;;;;;;;;;;;19.99;52.65;92721.81;2055430;70;20137;-75
2023/06/19 02:40:40;;;;;;;;;;;;;;;20.05;52.96;92719.13;2049197;70;20141;-75
2023/06/19 02:43:05;;;;;;;;;;;;;;;19.84;53.03;92716.41;2049238;70;20145;-75
2023/06/19 02:45:31;;;;;;;;;;;;;;;20.04;52.74;92716.94;2051945;70;20054;-75
2023/06/19 02:47:57;;;;;;;;;;;;;;;20.02;53.41;92719.72;2055305;70;20058;-76
2023/06/19 02:50:23;;;;;;;;;;;;;;;19.94;54.58;92719.53;2051888;70;20145;-75
2023/06/19 02:52:48;;;;;;;;;;;;;;;20.09;54.05;92724.22;2057770;69;20057;-75
2023/06/19 02:55:14;;;;;;;;;;;;;;;20.02;54.62;92717.63;2058971;69;20046;-75
2023/06/19 02:57:39;;;;;;;;;;;;;;;20.09;54.40;92720.63;2058834;69;20089;-75
2023/06/19 03:00:09;;;;;;;;;;;;;;;20.14;52.29;92722.91;2054522;69;20124;-74
2023/06/19 03:02:34;;;;;;;;;;;;;;;20.06;53.25;92719.84;2051041;69;20061;-75
2023/06/19 03:05:00;;;;;;;;;;;;;;;20.11;52.04;92726.38;2052517;69;20050;-75
2023/06/19 03:07:28;;;;;;;;;;;;;;;20.02;53.19;92729.06;2056906;69;20061;-74
2023/06/19 03:09:54;;;;;;;;;;;;;;;19.98;54.65;92728.22;2052066;70;20058;-75
2023/06/19 03:12:20;;;;;;;;;;;;;;;20.07;54.00;92727.03;2051466;70;20153;-75
2023/06/19 03:14:46;;;;;;;;;;;;;;;19.97;54.42;92726.75;2048850;70;20137;-75
2023/06/19 03:17:12;;;;;;;;;;;;;;;20.06;54.42;92731.28;2051994;70;20141;-75
2023/06/19 03:19:38;;;;;;;;;;;;;;;20.07;53.51;92735.59;2051956;70;20120;-75
2023/06/19 03:22:03;;;;;;;;;;;;;;;20.08;53.91;92742.03;2054753;69;20070;-75
2023/06/19 03:24:29;;;;;;;;;;;;;;;20.08;54.63;92742.03;2051979;70;20057;-76
2023/06/19 03:27:08;;;;;;;;;;;;;;;20.17;53.72;92740.84;2052034;70;20058;-75
2023/06/19 03:29:34;;;;;;;;;;;;;;;20.21;54.08;92735.25;2051942;70;20047;-75
2023/06/19 03:32:04;;;;;;;;;;;;;;;20.14;53.64;92733.63;2052000;70;20043;-75
2023/06/19 03:34:32;;;;;;;;;;;;;;;20.22;53.18;92739.56;2051412;70;20050;-75
2023/06/19 03:36:59;;;;;;;;;;;;;;;20.21;54.17;92741.69;2051605;70;20539;-75
2023/06/19 03:39:25;;;;;;;;;;;;;;;19.89;55.90;92732.25;2051973;70;20153;-75
2023/06/19 03:41:53;;;;;;;;;;;;;;;20.09;54.76;92734.91;2055548;69;20073;-74
2023/06/19 03:44:20;;;;;;;;;;;;;;;20.12;54.77;92730.72;2051871;70;20054;-75
2023/06/19 03:46:47;;;;;;;;;;;;;;;19.98;54.70;92731.06;2055492;70;20054;-75
2023/06/19 03:49:12;;;;;;;;;;;;;;;20.17;54.11;92738.00;2051823;70;20080;-75
2023/06/19 03:51:38;;;;;;;;;;;;;;;20.12;55.02;92737.16;2056824;69;20054;-75
2023/06/19 03:54:03;;;;;;;;;;;;;;;19.72;55.39;92733.94;2058775;69;20046;-75
2023/06/19 03:56:28;;;;;;;;;;;;;;;20.05;54.49;92746.97;2055097;69;20061;-75
2023/06/19 03:58:54;;;;;;;;;;;;;;;20.14;54.40;92742.91;2058665;69;20083;-75
2023/06/19 04:01:21;;;;;;;;;;;;;;;20.24;54.06;92743.16;2054802;69;20061;-74
2023/06/19 04:03:48;;;;;;;;;;;;;;;20.34;52.57;92745.56;2055113;69;20057;-74
2023/06/19 04:06:13;;;;;;;;;;;;;;;20.18;53.88;92742.31;2058667;69;20096;-75
2023/06/19 04:08:39;;;;;;;;;;;;;;;20.17;53.73;92747.28;2054782;69;20489;-75
2023/06/19 04:11:04;;;;;;;;;;;;;;;20.10;54.47;92747.81;2053703;69;20513;-76
2023/06/19 04:13:30;;;;;;;;;;;;;;;20.30;52.92;92745.47;2055273;69;20055;-74
2023/06/19 04:15:55;;;;;;;;;;;;;;;20.42;53.48;92745.78;2055645;70;20054;-76
2023/06/19 04:18:21;;;;;;;;;;;;;;;20.34;54.31;92748.41;2051736;70;20088;-76
2023/06/19 04:20:47;;;;;;;;;;;;;;;20.41;54.92;92744.31;2055299;69;20042;-76
2023/06/19 04:23:12;;;;;;;;;;;;;;;20.30;52.06;92751.91;2055289;70;20438;-76
2023/06/19 04:25:38;;;;;;;;;;;;;;;20.43;54.11;92747.22;2051720;70;20109;-75
2023/06/19 04:28:04;;;;;;;;;;;;;;;20.52;53.32;92745.31;2054517;70;20414;-75
2023/06/19 04:30:30;;;;;;;;;;;;;;;20.44;53.45;92745.84;2051689;70;20051;-76
2023/06/19 04:32:56;;;;;;;;;;;;;;;20.57;52.97;92744.00;2055270;70;20050;-76
2023/06/19 04:35:23;;;;;;;;;;;;;;;20.66;54.45;92753.50;2054932;70;20560;-75
2023/06/19 04:37:49;;;;;;;;;;;;;;;20.75;54.60;92755.88;2055304;70;20491;-75
2023/06/19 04:40:14;;;;;;;;;;;;;;;20.78;54.41;92750.94;2055333;70;20090;-75
2023/06/19 04:42:39;;;;;;;;;;;;;;;20.90;53.89;92751.25;2055230;69;20054;-75
2023/06/19 04:45:07;;;;;;;;;;;;;;;20.89;55.41;92754.78;2052505;69;20121;-74
2023/06/19 04:47:32;;;;;;;;;;;;;;;20.84;54.83;92753.94;2057922;69;20077;-76
2023/06/19 04:50:01;;;;;;;;;;;;;;;20.64;53.80;92754.19;2056937;69;20062;-76
2023/06/19 04:52:27;;;;;;;;;;;;;;;20.93;53.25;92754.88;2056022;69;20050;-76
2023/06/19 04:54:55;;;;;;;;;;;;;;;21.11;52.27;92748.84;2057374;69;20042;-76
2023/06/19 04:57:23;;;;;;;;;;;;;;;21.06;52.34;92756.59;2054144;70;20094;-75
2023/06/19 04:59:49;;;;;;;;;;;;;;;21.15;53.25;92754.66;2055905;69;20050;-76
2023/06/19 05:02:14;;;;;;;;;;;;;;;21.13;55.84;92755.34;2055206;70;20058;-76
2023/06/19 05:04:42;;;;;;;;;;;;;;;21.20;55.78;92751.19;2055436;69;20399;-75
2023/06/19 05:07:08;;;;;;;;;;;;;;;21.38;52.18;92761.63;2056839;69;20097;-76
2023/06/19 05:09:33;;;;;;;;;;;;;;;21.34;53.15;92758.69;2057042;69;20058;-76
2023/06/19 05:11:59;;;;;;;;;;;;;;;21.44;53.56;92764.63;2052881;69;20097;-75
2023/06/19 05:14:24;;;;;;;;;;;;;;;21.54;54.80;92762.72;2054610;70;20069;-74
2023/06/19 05:16:50;;;;;;;;;;;;;;;21.45;55.10;92763.94;2055643;69;20046;-76
2023/06/19 05:19:15;;;;;;;;;;;;;;;21.63;54.75;92777.22;2056537;69;20482;-75
2023/06/19 05:21:42;;;;;;;;;;;;;;;21.67;53.73;92780.13;2055690;69;20053;-75
2023/06/19 05:24:08;;;;;;;;;;;;;;;21.45;52.85;92772.53;2057222;69;20046;-75
2023/06/19 05:26:33;;;;;;;;;;;;;;;21.73;52.66;92783.88;2056454;69;20057;-75
2023/06/19 05:28:59;;;;;;;;;;;;;;;21.72;53.54;92775.97;2057912;69;20133;-74
2023/06/19 05:31:27;;;;;;;;;;;;;;;21.82;53.10;92767.56;2057442;69;20557;-75
2023/06/19 05:34:08;;;;;;;;;;;;;;;21.87;55.18;92774.09;2057740;69;20516;-75
2023/06/19 05:36:33;;;;;;;;;;;;;;;21.82;55.28;92774.03;2054564;70;20465;-74
2023/06/19 05:38:59;;;;;;;;;;;;;;;21.88;54.68;92769.81;2051932;69;20098;-74
2023/06/19 05:41:24;;;;;;;;;;;;;;;22.00;54.60;92770.78;2054313;70;20490;-75
2023/06/19 05:43:50;;;;;;;;;;;;;;;22.08;54.77;92779.56;2054543;69;20486;-74
2023/06/19 05:46:15;;;;;;;;;;;;;;;22.16;53.57;92781.13;2054032;69;20550;-74
2023/06/19 05:48:41;;;;;;;;;;;;;;;22.20;56.10;92781.22;2050403;70;20074;-74
2023/06/19 05:51:06;;;;;;;;;;;;;;;22.27;54.91;92780.66;2054984;70;20506;-75
2023/06/19 05:53:32;;;;;;;;;;;;;;;22.30;54.72;92781.41;2054503;69;20046;-75
2023/06/19 05:55:58;;;;;;;;;;;;;;;22.35;55.50;92779.34;2054981;70;20081;-74
2023/06/19 05:58:25;;;;;;;;;;;;;;;22.42;54.93;92783.78;2054436;70;20066;-75
2023/06/19 06:00:57;;;;;;;;;;;;;;;22.38;52.14;92792.31;2051397;70;20061;-74
2023/06/19 06:03:23;;;;;;;;;;;;;;;22.45;53.22;92788.88;2054617;70;20061;-75
2023/06/19 06:05:49;;;;;;;;;;;;;;;22.35;51.92;92785.78;2054673;70;20054;-74
2023/06/19 06:08:15;;;;;;;;;;;;;;;22.15;50.65;92779.69;2054581;70;20101;-74
2023/06/19 06:10:40;;;;;;;;;;;;;;;22.23;50.76;92785.59;2054952;70;20054;-74
2023/06/19 06:13:06;;;;;;;;;;;;;;;22.04;50.23;92773.75;2054850;70;20058;-75
2023/06/19 06:15:35;;;;;;;;;;;;;;;22.29;51.81;92777.81;2050855;70;20080;-75
2023/06/19 06:18:03;;;;;;;;;;;;;;;22.34;52.73;92767.13;2051618;70;20097;-75
2023/06/19 06:20:29;;;;;;;;;;;;;;;22.07;50.07;92769.47;2054881;69;20050;-75
2023/06/19 06:22:57;;;;;;;;;;;;;;;22.24;50.20;92766.97;2050817;70;20494;-74
2023/06/19 06:25:23;;;;;;;;;;;;;;;22.23;50.17;92759.78;2054238;70;20117;-75
2023/06/19 06:27:54;;;;;;;;;;;;;;;22.14;50.32;92767.50;2051219;70;20050;-73
2023/06/19 06:30:20;;;;;;;;;;;;;;;21.72;52.42;92785.28;2048518;70;20148;-74
2023/06/19 06:32:46;;;;;;;;;;;;;;;21.95;50.01;92777.13;2054157;70;20057;-74
2023/06/19 06:35:13;;;;;;;;;;;;;;;22.09;51.20;92774.53;2050907;69;20117;-74
2023/06/19 06:37:38;;;;;;;;;;;;;;;22.26;51.82;92784.91;2055860;69;20117;-75
2023/06/19 06:40:09;;;;;;;;;;;;;;;22.03;51.77;92775.13;2056101;69;20512;-75
2023/06/19 06:42:39;;;;;;;;;;;;;;;22.31;49.37;92782.84;2055642;69;20062;-75
2023/06/19 06:45:06;;;;;;;;;;;;;;;22.43;50.14;92779.50;2055700;69;20058;-75
2023/06/19 06:47:31;;;;;;;;;;;;;;;22.57;50.50;92777.59;2057141;69;20125;-76
2023/06/19 06:49:57;;;;;;;;;;;;;;;22.67;50.35;92785.66;2055537;69;20149;-76
2023/06/19 06:52:22;;;;;;;;;;;;;;;22.63;51.63;92785.56;2054105;69;20141;-75
2023/06/19 06:54:48;;;;;;;;;;;;;;;22.76;51.78;92780.78;2053751;70;20121;-74
2023/06/19 06:57:13;;;;;;;;;;;;;;;22.81;51.02;92779.41;2054612;70;20469;-74
2023/06/19 06:59:40;;;;;;;;;;;;;;;22.97;49.27;92776.13;2055569;69;20204;-74
2023/06/19 07:02:05;;;;;;;;;;;;;;;22.93;52.27;92776.78;2058277;69;20065;-74
2023/06/19 07:04:31;;;;;;;;;;;;;;;22.95;51.10;92782.53;2054618;69;20050;-76
2023/06/19 07:06:58;;;;;;;;;;;;;;;22.99;50.66;92782.59;2054954;69;20100;-74
2023/06/19 07:09:23;;;;;;;;;;;;;;;23.03;51.21;92776.94;2058056;69;20220;-75
2023/06/19 07:11:49;;;;;;;;;;;;;;;23.14;49.97;92772.09;2058689;69;20053;-75
2023/06/19 07:14:17;;;;;;;;;;;;;;;23.10;52.39;92772.03;2058414;69;20421;-76
2023/06/19 07:16:43;;;;;;;;;;;;;;;23.22;50.43;92766.44;2056987;69;20057;-76
2023/06/19 07:19:09;;;;;;;;;;;;;;;23.40;50.62;92766.00;2054975;70;20547;-77
2023/06/19 07:21:35;;;;;;;;;;;;;;;23.47;50.79;92767.53;2054462;70;20104;-76
2023/06/19 07:24:01;;;;;;;;;;;;;;;23.47;49.10;92772.56;2055159;70;20483;-75
2023/06/19 07:26:28;;;;;;;;;;;;;;;23.50;46.91;92768.28;2051642;70;20058;-76
2023/06/19 07:28:53;;;;;;;;;;;;;;;23.72;46.39;92774.34;2055340;70;20514;-76
2023/06/19 07:31:20;;;;;;;;;;;;;;;23.72;46.70;92771.47;2056815;69;20105;-76
2023/06/19 07:33:45;;;;;;;;;;;;;;;23.91;46.37;92772.44;2053703;69;20090;-76
2023/06/19 07:36:13;;;;;;;;;;;;;;;23.76;45.01;92762.19;2053338;70;20065;-78
2023/06/19 07:38:40;;;;;;;;;;;;;;;23.93;44.35;92768.88;2051723;70;20483;-76
2023/06/19 07:41:07;;;;;;;;;;;;;;;23.97;44.63;92768.91;2050401;70;20165;-77
2023/06/19 07:43:32;;;;;;;;;;;;;;;24.09;44.35;92763.28;2054363;69;20050;-78
2023/06/19 07:45:59;;;;;;;;;;;;;;;23.94;43.24;92759.53;2056039;69;20128;-78
2023/06/19 07:48:24;;;;;;;;;;;;;;;24.17;43.63;92751.16;2055377;69;20503;-79
2023/06/19 07:50:52;;;;;;;;;;;;;;;24.45;42.71;92751.47;2054818;69;20069;-77
2023/06/19 07:53:18;;;;;;;;;;;;;;;24.62;43.71;92745.91;2055269;69;20172;-77
2023/06/19 07:55:43;;;;;;;;;;;;;;;24.73;43.63;92741.66;2055247;69;20124;-75
2023/06/19 07:58:08;;;;;;;;;;;;;;;24.77;43.07;92748.19;2058234;69;20153;-78
2023/06/19 08:00:34;;;;;;;;;;;;;;;25.03;42.08;92744.06;2057082;69;20478;-77
2023/06/19 08:02:59;;;;;;;;;;;;;;;25.04;41.36;92742.63;2055384;70;20399;-78
2023/06/19 08:05:25;;;;;;;;;;;;;;;25.16;42.13;92739.16;2058295;69;20086;-78
2023/06/19 08:07:50;;;;;;;;;;;;;;;25.51;42.35;92740.09;2056379;69;21892;-79
2023/06/19 08:10:15;;;;;;;;;;;;;;;25.68;41.90;92744.50;2052421;70;20581;-80
2023/06/19 08:12:42;;;;;;;;;;;;;;;25.66;41.46;92738.00;2055417;69;20429;-77
2023/06/19 08:15:07;;;;;;;;;;;;;;;25.92;40.98;92732.38;2055710;69;20057;-78
2023/06/19 08:17:34;;;;;;;;;;;;;;;26.11;40.45;92727.41;2055898;69;20567;-79
2023/06/19 08:20:00;;;;;;;;;;;;;;;26.41;39.75;92729.66;2052032;70;20047;-78
2023/06/19 08:22:25;;;;;;;;;;;;;;;26.63;39.91;92719.63;2052790;69;20046;-79
2023/06/19 08:24:53;;;;;;;;;;;;;;;26.81;38.82;92722.53;2058962;69;20688;-79
2023/06/19 08:27:19;;;;;;;;;;;;;;;27.28;37.09;92716.72;2059022;69;20065;-79
2023/06/19 08:29:44;;;;;;;;;;;;;;;27.24;37.67;92720.34;2051872;69;20192;-78
2023/06/19 08:32:10;;;;;;;;;;;;;;;27.92;37.12;92723.09;2055959;69;20490;-78
2023/06/19 08:34:36;;;;;;;;;;;;;;;28.55;37.15;92711.94;2055453;69;20442;-76
2023/06/19 08:37:01;;;;;;;;;;;;;;;28.56;34.92;92704.69;2055318;69;20047;-77
2023/06/19 08:39:27;;;;;;;;;;;;;;;28.97;36.18;92710.22;2054824;69;20162;-78
2023/06/19 08:41:55;;;;;;;;;;;;;;;29.37;34.51;92709.16;2058932;69;20053;-78
2023/06/19 08:44:21;;;;;;;;;;;;;;;29.41;34.13;92702.56;2055591;69;20077;-77
2023/06/19 08:46:46;;;;;;;;;;;;;;;29.45;34.16;92698.91;2055597;70;20480;-77
2023/06/19 08:49:12;;;;;;;;;;;;;;;29.46;33.17;92701.09;2055238;69;20082;-78
2023/06/19 08:51:38;;;;;;;;;;;;;;;30.36;33.00;92705.88;2055585;69;20046;-78
2023/06/19 08:54:06;;;;;;;;;;;;;;;30.36;32.13;92705.88;2051752;70;20529;-78
2023/06/19 08:56:34;;;;;;;;;;;;;;;30.13;33.43;92709.06;2057073;69;20127;-78
2023/06/19 08:59:16;;;;;;;;;;;;;;;30.42;32.07;92702.88;2056147;69;20058;-76
2023/06/19 09:01:52;;;;;;;;;;;;;;;30.52;32.58;92693.34;2055298;69;20058;-77
2023/06/19 09:04:23;;;;;;;;;;;;;;;31.64;32.58;92689.34;2052019;70;20422;-77
2023/06/19 09:06:53;;;;;;;;;;;;;;;31.55;31.88;92688.06;2058126;69;20050;-78
2023/06/19 09:09:23;;;;;;;;;;;;;;;31.92;31.67;92687.38;2053102;69;20545;-78
2023/06/19 09:11:58;;;;;;;;;;;;;;;32.06;30.23;92690.00;2059221;69;20464;-78
2023/06/19 09:14:30;;;;;;;;;;;;;;;32.21;31.10;92675.88;2057760;69;20077;-77
2023/06/19 09:16:56;;;;;;;;;;;;;;;32.68;29.17;92674.16;2058460;69;20062;-76
2023/06/19 09:19:21;;;;;;;;;;;;;;;33.21;30.07;92673.63;2055597;69;20046;-76
2023/06/19 09:21:47;;;;;;;;;;;;;;;32.55;28.21;92664.97;2057262;69;20071;-77
2023/06/19 09:24:12;;;;;;;;;;;;;;;33.39;28.93;92670.25;2057249;69;20046;-78
2023/06/19 09:26:38;;;;;;;;;;;;;;;32.95;29.37;92659.72;2051432;69;20124;-77
2023/06/19 09:29:18;;;;;;;;;;;;;;;32.75;26.41;92657.97;2057537;69;20086;-78
2023/06/19 09:31:44;;;;;;;;;;;;;;;33.08;28.01;92655.75;2055858;69;20122;-77
2023/06/19 09:34:12;;;;;;;;;;;;;;;34.09;25.35;92651.63;2055636;70;20101;-77
2023/06/19 09:36:37;;;;;;;;;;;;;;;34.19;25.19;92650.63;2058424;69;20145;-78
2023/06/19 09:39:03;;;;;;;;;;;;;;;34.35;25.73;92664.72;2054659;70;20070;-78
2023/06/19 09:41:29;;;;;;;;;;;;;;;34.73;25.20;92652.66;2055312;70;20042;-78
2023/06/19 09:43:57;;;;;;;;;;;;;;;34.23;26.23;92658.56;2057229;69;20137;-78
2023/06/19 09:46:26;;;;;;;;;;;;;;;34.34;26.17;92656.75;2056506;69;20050;-78
2023/06/19 09:48:54;;;;;;;;;;;;;;;34.07;25.23;92650.97;2056171;69;20098;-78
2023/06/19 09:51:20;;;;;;;;;;;;;;;34.98;25.73;92650.44;2056621;69;20054;-77
2023/06/19 09:53:50;;;;;;;;;;;;;;;35.17;26.52;92655.69;2052100;69;20083;-78
2023/06/19 09:56:21;;;;;;;;;;;;;;;35.25;24.00;92650.28;2059107;69;20076;-78
2023/06/19 09:58:49;;;;;;;;;;;;;;;35.53;23.67;92654.47;2057044;69;20140;-78
2023/06/19 10:01:15;;;;;;;;;;;;;;;35.27;23.56;92647.28;2056014;69;20074;-78
2023/06/19 10:03:40;;;;;;;;;;;;;;;36.17;22.22;92649.34;2055684;69;20046;-79
2023/06/19 10:06:06;;;;;;;;;;;;;;;36.81;22.84;92639.59;2058812;69;20054;-78
2023/06/19 10:08:38;;;;;;;;;;;;;;;36.30;20.97;92642.22;2058742;69;20046;-78
2023/06/19 10:11:03;;;;;;;;;;;;;;;37.08;22.18;92642.19;2058664;69;20115;-78
2023/06/19 10:13:33;;;;;;;;;;;;;;;35.99;22.21;92642.63;2058140;69;20101;-78
2023/06/19 10:15:59;;;;;;;;;;;;;;;37.28;22.08;92632.53;2052315;70;20501;-78
2023/06/19 10:18:26;;;;;;;;;;;;;;;36.13;21.81;92630.41;2055620;69;20022;-78
2023/06/19 10:20:52;;;;;;;;;;;;;;;36.80;20.67;92626.44;2056985;69;20057;-78
2023/06/19 10:23:18;;;;;;;;;;;;;;;37.63;21.13;92625.97;2056243;69;20042;-78
2023/06/19 10:25:45;;;;;;;;;;;;;;;37.92;20.74;92624.03;2056237;69;20050;-77
2023/06/19 10:28:17;;;;;;;;;;;;;;;39.02;19.76;92618.97;2056468;69;20046;-77
2023/06/19 10:30:42;;;;;;;;;;;;;;;39.04;19.68;92616.66;2053041;69;20061;-78
2023/06/19 10:33:08;;;;;;;;;;;;;;;37.33;21.27;92610.31;2059015;69;20437;-78
2023/06/19 10:35:40;;;;;;;;;;;;;;;39.46;19.12;92621.97;2052888;70;20081;-78
2023/06/19 10:38:06;;;;;;;;;;;;;;;39.69;18.97;92623.81;2055770;69;20133;-77
2023/06/19 10:40:32;;;;;;;;;;;;;;;41.05;17.92;92619.47;2056679;69;20054;-78
2023/06/19 10:42:57;;;;;;;;;;;;;;;42.07;15.66;92619.47;2055141;70;20147;-78
2023/06/19 10:45:28;;;;;;;;;;;;;;;45.22;15.20;92619.41;2055574;69;20050;-78
2023/06/19 10:47:54;;;;;;;;;;;;;;;44.78;14.11;92615.84;2056363;69;20054;-78
2023/06/19 10:50:20;;;;;;;;;;;;;;;45.88;14.77;92619.00;2055985;69;20059;-77
2023/06/19 10:52:47;;;;;;;;;;;;;;;44.11;15.04;92606.38;2056216;69;20058;-77
2023/06/19 10:55:13;;;;;;;;;;;;;;;43.98;15.61;92611.72;2058475;69;20135;-78
2023/06/19 10:57:40;;;;;;;;;;;;;;;46.54;14.44;92608.75;2058480;69;20119;-78
2023/06/19 11:00:11;;;;;;;;;;;;;;;45.06;14.69;92598.25;2056277;69;20053;-78
2023/06/19 11:02:39;;;;;;;;;;;;;;;44.28;14.57;92590.44;2056271;69;20106;-78
2023/06/19 11:05:05;;;;;;;;;;;;;;;47.13;12.49;92598.09;2058511;69;20152;-78
2023/06/19 11:07:31;;;;;;;;;;;;;;;43.33;15.32;92584.19;2056029;69;20542;-78
2023/06/19 11:09:57;;;;;;;;;;;;;;;42.17;16.19;92564.22;2054278;70;20046;-77
2023/06/19 11:12:22;;;;;;;;;;;;;;;40.47;17.33;92562.19;2055607;69;20015;-78
2023/06/19 11:14:48;;;;;;;;;;;;;;;43.25;15.44;92563.97;2056106;69;20190;-78
2023/06/19 11:17:13;;;;;;;;;;;;;;;45.45;14.18;92571.63;2057095;69;20115;-78
2023/06/19 11:19:41;;;;;;;;;;;;;;;46.36;14.26;92572.88;2056222;70;20051;-77
2023/06/19 11:22:07;;;;;;;;;;;;;;;41.13;17.11;92551.09;2054048;69;20054;-77
2023/06/19 11:24:33;;;;;;;;;;;;;;;39.00;18.59;92552.13;2056834;69;20417;-78
2023/06/19 11:26:59;;;;;;;;;;;;;;;43.24;16.46;92550.72;2056548;69;20136;-77
2023/06/19 11:29:25;;;;;;;;;;;;;;;39.00;18.80;92540.34;2056091;70;20077;-78
2023/06/19 11:31:54;;;;;;;;;;;;;;;41.16;16.12;92548.75;2057624;69;20119;-78
2023/06/19 11:34:31;;;;;;;;;;;;;;;43.42;14.79;92542.88;2053357;70;20202;-77
2023/06/19 11:36:57;;;;;;;;;;;;;;;43.13;16.03;92544.78;2057026;69;20058;-78
2023/06/19 11:39:25;;;;;;;;;;;;;;;46.96;13.88;92545.06;2055806;69;20226;-80
2023/06/19 11:41:50;;;;;;;;;;;;;;;43.65;14.35;92539.13;2054646;69;20054;-78
2023/06/19 11:44:16;;;;;;;;;;;;;;;40.88;16.56;92531.13;2059261;69;20433;-77
2023/06/19 11:46:42;;;;;;;;;;;;;;;41.01;16.29;92533.41;2057678;69;20425;-78
2023/06/19 11:49:09;;;;;;;;;;;;;;;39.15;18.09;92510.91;2052652;70;20497;-81
2023/06/19 11:51:35;;;;;;;;;;;;;;;37.77;18.96;92515.97;2053522;69;20073;-77
2023/06/19 11:54:00;;;;;;;;;;;;;;;37.30;19.00;92515.09;2055577;69;20050;-78
2023/06/19 11:56:26;;;;;;;;;;;;;;;37.44;19.06;92504.97;2058482;69;21906;-77
2023/06/19 11:58:51;;;;;;;;;;;;;;;37.47;19.29;92505.56;2055962;69;20116;-81
2023/06/19 12:01:17;;;;;;;;;;;;;;;38.78;17.90;92503.91;2056406;69;20051;-81
2023/06/19 12:03:43;;;;;;;;;;;;;;;37.74;18.65;92491.13;2056504;69;20060;-80
2023/06/19 12:06:08;;;;;;;;;;;;;;;40.00;18.05;92493.25;2056162;69;20213;-78
2023/06/19 12:08:37;;;;;;;;;;;;;;;36.96;19.62;92484.28;2059032;69;20156;-77
2023/06/19 12:11:08;;;;;;;;;;;;;;;38.22;19.29;92489.72;2058499;69;20086;-79
2023/06/19 12:13:33;;;;;;;;;;;;;;;38.81;19.62;92489.81;2058551;69;20628;-79
2023/06/19 12:15:59;;;;;;;;;;;;;;;38.42;18.72;92485.81;2056204;69;20564;-79
2023/06/19 12:18:24;;;;;;;;;;;;;;;36.55;18.91;92483.03;2058097;69;20077;-78
2023/06/19 12:20:49;;;;;;;;;;;;;;;36.71;20.18;92490.44;2053257;69;20082;-78
2023/06/19 12:23:15;;;;;;;;;;;;;;;37.19;19.42;92484.75;2056129;69;20050;-79
2023/06/19 12:25:40;;;;;;;;;;;;;;;36.17;19.75;92476.47;2057132;69;20054;-79
2023/06/19 12:28:09;;;;;;;;;;;;;;;37.39;19.47;92472.16;2056427;69;20535;-79
2023/06/19 12:30:36;;;;;;;;;;;;;;;36.28;20.61;92471.63;2057351;69;20529;-78
2023/06/19 12:33:03;;;;;;;;;;;;;;;35.46;21.17;92474.00;2058935;69;20050;-79
2023/06/19 12:35:29;;;;;;;;;;;;;;;35.22;20.78;92467.53;2059713;69;20081;-78
2023/06/19 12:37:54;;;;;;;;;;;;;;;34.72;22.06;92464.88;2054473;69;20128;-77
2023/06/19 12:40:20;;;;;;;;;;;;;;;36.21;21.13;92453.59;2058313;69;20065;-77
2023/06/19 12:42:46;;;;;;;;;;;;;;;36.00;20.79;92450.75;2056798;69;20093;-78
2023/06/19 12:45:11;;;;;;;;;;;;;;;34.60;21.33;92456.53;2057298;69;20059;-76